sensor_id;sensor_type;location;lat;lon;timestamp;P1;P2;P0
57563;PMS7003;43400;45.926;6.724;2023-01-24T00:00:50;28.50;26.50;19.25
57563;PMS7003;43400;45.926;6.724;2023-01-24T00:03:22;35.20;31.00;21.00
57563;PMS7003;43400;45.926;6.724;2023-01-24T00:05:54;57.00;50.60;33.00
57563;PMS7003;43400;45.926;6.724;2023-01-24T00:08:27;61.20;52.00;31.40
57563;PMS7003;43400;45.926;6.724;2023-01-24T00:10:59;42.25;38.00;24.00
57563;PMS7003;43400;45.926;6.724;2023-01-24T00:13:39;34.67;29.33;19.00
57563;PMS7003;43400;45.926;6.724;2023-01-24T00:16:17;37.50;35.75;20.50
57563;PMS7003;43400;45.926;6.724;2023-01-24T00:18:50;33.00;31.00;19.00
57563;PMS7003;43400;45.926;6.724;2023-01-24T00:21:23;28.20;28.20;19.60
57563;PMS7003;43400;45.926;6.724;2023-01-24T00:23:55;42.25;38.00;21.50
57563;PMS7003;43400;45.926;6.724;2023-01-24T00:26:27;35.33;33.33;20.33
57563;PMS7003;43400;45.926;6.724;2023-01-24T00:29:00;37.00;36.00;24.50
57563;PMS7003;43400;45.926;6.724;2023-01-24T00:31:32;51.25;47.00;27.50
57563;PMS7003;43400;45.926;6.724;2023-01-24T00:34:06;42.00;35.00;21.50
57563;PMS7003;43400;45.926;6.724;2023-01-24T00:36:41;35.50;34.25;21.50
57563;PMS7003;43400;45.926;6.724;2023-01-24T00:39:13;35.00;31.40;22.00
57563;PMS7003;43400;45.926;6.724;2023-01-24T00:41:46;37.67;31.67;20.33
57563;PMS7003;43400;45.926;6.724;2023-01-24T00:44:17;33.25;31.00;19.50
57563;PMS7003;43400;45.926;6.724;2023-01-24T00:46:53;42.40;35.80;19.40
57563;PMS7003;43400;45.926;6.724;2023-01-24T00:49:26;33.00;30.50;19.50
57563;PMS7003;43400;45.926;6.724;2023-01-24T00:51:58;32.20;27.80;19.80
57563;PMS7003;43400;45.926;6.724;2023-01-24T00:54:30;31.00;28.00;18.25
57563;PMS7003;43400;45.926;6.724;2023-01-24T00:57:02;31.00;30.00;19.00
57563;PMS7003;43400;45.926;6.724;2023-01-24T00:59:34;31.50;29.50;19.00
57563;PMS7003;43400;45.926;6.724;2023-01-24T01:02:06;30.20;29.40;19.00
57563;PMS7003;43400;45.926;6.724;2023-01-24T01:04:38;30.25;30.25;19.00
57563;PMS7003;43400;45.926;6.724;2023-01-24T01:07:09;27.50;25.00;16.00
57563;PMS7003;43400;45.926;6.724;2023-01-24T01:09:42;28.50;24.50;18.00
57563;PMS7003;43400;45.926;6.724;2023-01-24T01:12:15;33.40;31.80;21.40
57563;PMS7003;43400;45.926;6.724;2023-01-24T01:14:47;27.25;26.00;18.00
57563;PMS7003;43400;45.926;6.724;2023-01-24T01:17:21;33.00;30.50;17.00
57563;PMS7003;43400;45.926;6.724;2023-01-24T01:19:53;32.20;28.00;19.80
57563;PMS7003;43400;45.926;6.724;2023-01-24T01:22:26;28.60;27.40;17.60
57563;PMS7003;43400;45.926;6.724;2023-01-24T01:24:58;27.80;26.60;18.40
57563;PMS7003;43400;45.926;6.724;2023-01-24T01:27:31;27.25;27.25;20.00
57563;PMS7003;43400;45.926;6.724;2023-01-24T01:30:03;28.75;28.50;18.50
57563;PMS7003;43400;45.926;6.724;2023-01-24T01:32:36;30.25;29.50;18.25
57563;PMS7003;43400;45.926;6.724;2023-01-24T01:35:08;27.80;27.40;16.40
57563;PMS7003;43400;45.926;6.724;2023-01-24T01:37:40;29.00;25.00;18.00
57563;PMS7003;43400;45.926;6.724;2023-01-24T01:40:11;28.60;25.40;16.00
57563;PMS7003;43400;45.926;6.724;2023-01-24T01:48:11;29.60;27.80;16.80
57563;PMS7003;43400;45.926;6.724;2023-01-24T01:50:58;24.40;23.60;15.60
57563;PMS7003;43400;45.926;6.724;2023-01-24T01:53:35;25.00;24.00;18.00
57563;PMS7003;43400;45.926;6.724;2023-01-24T01:56:38;33.40;33.00;21.20
57563;PMS7003;43400;45.926;6.724;2023-01-24T01:59:09;28.00;28.00;19.00
57563;PMS7003;43400;45.926;6.724;2023-01-24T02:01:45;28.80;23.60;16.00
57563;PMS7003;43400;45.926;6.724;2023-01-24T02:04:22;33.00;31.00;17.50
57563;PMS7003;43400;45.926;6.724;2023-01-24T02:07:00;28.00;27.00;18.20
57563;PMS7003;43400;45.926;6.724;2023-01-24T02:09:42;28.00;27.20;18.00
57563;PMS7003;43400;45.926;6.724;2023-01-24T02:12:21;27.50;26.00;18.00
57563;PMS7003;43400;45.926;6.724;2023-01-24T02:15:03;27.00;24.60;18.00
57563;PMS7003;43400;45.926;6.724;2023-01-24T02:17:38;27.00;25.00;16.40
57563;PMS7003;43400;45.926;6.724;2023-01-24T02:20:13;31.50;30.00;21.00
57563;PMS7003;43400;45.926;6.724;2023-01-24T02:28:48;25.00;22.00;15.00
57563;PMS7003;43400;45.926;6.724;2023-01-24T02:31:25;23.00;21.60;15.00
57563;PMS7003;43400;45.926;6.724;2023-01-24T02:33:57;29.60;27.40;18.00
57563;PMS7003;43400;45.926;6.724;2023-01-24T02:36:33;30.20;27.20;18.00
57563;PMS7003;43400;45.926;6.724;2023-01-24T02:39:09;28.60;23.20;15.00
57563;PMS7003;43400;45.926;6.724;2023-01-24T02:41:49;37.25;32.75;21.25
57563;PMS7003;43400;45.926;6.724;2023-01-24T02:47:17;48.00;40.00;25.00
57563;PMS7003;43400;45.926;6.724;2023-01-24T02:49:49;39.75;38.50;24.00
57563;PMS7003;43400;45.926;6.724;2023-01-24T02:52:20;42.20;36.20;21.20
57563;PMS7003;43400;45.926;6.724;2023-01-24T02:54:53;37.00;34.00;21.00
57563;PMS7003;43400;45.926;6.724;2023-01-24T02:57:25;40.60;34.20;21.80
57563;PMS7003;43400;45.926;6.724;2023-01-24T02:59:56;30.00;27.00;18.00
57563;PMS7003;43400;45.926;6.724;2023-01-24T03:02:28;32.50;32.50;22.00
57563;PMS7003;43400;45.926;6.724;2023-01-24T03:05:00;34.60;33.80;19.80
57563;PMS7003;43400;45.926;6.724;2023-01-24T03:07:31;33.80;33.60;21.60
57563;PMS7003;43400;45.926;6.724;2023-01-24T03:10:03;44.50;42.00;22.00
57563;PMS7003;43400;45.926;6.724;2023-01-24T03:12:35;28.00;28.00;21.00
57563;PMS7003;43400;45.926;6.724;2023-01-24T03:15:07;36.00;34.00;21.00
57563;PMS7003;43400;45.926;6.724;2023-01-24T03:17:39;35.00;30.80;18.00
57563;PMS7003;43400;45.926;6.724;2023-01-24T03:20:11;39.25;33.75;19.00
57563;PMS7003;43400;45.926;6.724;2023-01-24T03:22:42;32.50;28.25;16.50
57563;PMS7003;43400;45.926;6.724;2023-01-24T03:25:14;61.80;49.80;26.20
57563;PMS7003;43400;45.926;6.724;2023-01-24T03:27:46;39.67;36.00;20.33
57563;PMS7003;43400;45.926;6.724;2023-01-24T03:30:17;25.80;24.40;15.80
57563;PMS7003;43400;45.926;6.724;2023-01-24T03:32:49;30.75;27.25;16.00
57563;PMS7003;43400;45.926;6.724;2023-01-24T03:35:21;34.00;28.40;16.80
57563;PMS7003;43400;45.926;6.724;2023-01-24T03:37:53;36.75;32.25;19.50
57563;PMS7003;43400;45.926;6.724;2023-01-24T03:40:25;32.50;30.00;18.00
57563;PMS7003;43400;45.926;6.724;2023-01-24T03:42:58;27.25;24.50;15.00
57563;PMS7003;43400;45.926;6.724;2023-01-24T03:45:31;29.80;27.40;18.80
57563;PMS7003;43400;45.926;6.724;2023-01-24T03:48:06;23.25;23.25;15.50
57563;PMS7003;43400;45.926;6.724;2023-01-24T03:50:40;33.50;30.50;18.00
57563;PMS7003;43400;45.926;6.724;2023-01-24T03:53:13;29.25;26.25;19.00
57563;PMS7003;43400;45.926;6.724;2023-01-24T03:55:46;30.00;28.50;18.75
57563;PMS7003;43400;45.926;6.724;2023-01-24T03:58:18;25.25;23.50;18.00
57563;PMS7003;43400;45.926;6.724;2023-01-24T04:00:49;26.20;25.00;15.00
57563;PMS7003;43400;45.926;6.724;2023-01-24T04:03:22;27.20;25.00;18.20
57563;PMS7003;43400;45.926;6.724;2023-01-24T04:05:55;39.50;36.00;24.00
57563;PMS7003;43400;45.926;6.724;2023-01-24T04:08:27;25.50;23.50;15.25
57563;PMS7003;43400;45.926;6.724;2023-01-24T04:10:58;32.60;27.80;16.00
57563;PMS7003;43400;45.926;6.724;2023-01-24T04:13:30;25.60;22.80;15.00
57563;PMS7003;43400;45.926;6.724;2023-01-24T04:16:01;22.00;21.50;15.25
57563;PMS7003;43400;45.926;6.724;2023-01-24T04:18:33;27.00;24.00;13.00
57563;PMS7003;43400;45.926;6.724;2023-01-24T04:21:05;24.00;22.00;16.00
57563;PMS7003;43400;45.926;6.724;2023-01-24T04:23:37;30.25;26.50;15.25
57563;PMS7003;43400;45.926;6.724;2023-01-24T04:26:10;29.80;29.80;18.00
57563;PMS7003;43400;45.926;6.724;2023-01-24T04:28:41;25.40;24.60;17.20
57563;PMS7003;43400;45.926;6.724;2023-01-24T04:31:13;36.75;29.50;19.00
57563;PMS7003;43400;45.926;6.724;2023-01-24T04:33:45;30.25;29.50;19.50
57563;PMS7003;43400;45.926;6.724;2023-01-24T04:36:16;25.00;25.00;18.25
57563;PMS7003;43400;45.926;6.724;2023-01-24T04:38:48;31.00;29.50;18.50
57563;PMS7003;43400;45.926;6.724;2023-01-24T04:41:20;25.00;22.00;16.00
57563;PMS7003;43400;45.926;6.724;2023-01-24T04:43:51;39.00;37.00;22.40
57563;PMS7003;43400;45.926;6.724;2023-01-24T04:46:23;34.00;33.50;22.00
57563;PMS7003;43400;45.926;6.724;2023-01-24T04:48:55;37.00;36.50;22.00
57563;PMS7003;43400;45.926;6.724;2023-01-24T04:51:27;37.00;37.00;22.67
57563;PMS7003;43400;45.926;6.724;2023-01-24T04:53:58;37.25;36.50;24.25
57563;PMS7003;43400;45.926;6.724;2023-01-24T04:56:30;32.25;30.50;19.00
57563;PMS7003;43400;45.926;6.724;2023-01-24T04:59:02;27.75;27.75;18.50
57563;PMS7003;43400;45.926;6.724;2023-01-24T05:01:34;29.00;28.00;18.00
57563;PMS7003;43400;45.926;6.724;2023-01-24T05:04:06;27.00;27.00;16.00
57563;PMS7003;43400;45.926;6.724;2023-01-24T05:06:37;31.20;28.80;18.20
57563;PMS7003;43400;45.926;6.724;2023-01-24T05:09:09;41.50;39.25;24.00
57563;PMS7003;43400;45.926;6.724;2023-01-24T05:11:41;40.25;38.50;22.50
57563;PMS7003;43400;45.926;6.724;2023-01-24T05:14:12;31.50;31.50;18.00
57563;PMS7003;43400;45.926;6.724;2023-01-24T05:16:44;40.75;38.50;24.00
57563;PMS7003;43400;45.926;6.724;2023-01-24T05:19:16;41.00;37.50;22.00
57563;PMS7003;43400;45.926;6.724;2023-01-24T05:21:47;33.60;31.00;21.60
57563;PMS7003;43400;45.926;6.724;2023-01-24T05:24:19;30.00;27.00;18.00
57563;PMS7003;43400;45.926;6.724;2023-01-24T05:26:51;42.20;37.00;19.80
57563;PMS7003;43400;45.926;6.724;2023-01-24T05:29:23;36.00;33.00;18.50
57563;PMS7003;43400;45.926;6.724;2023-01-24T05:31:54;32.20;30.80;21.00
57563;PMS7003;43400;45.926;6.724;2023-01-24T05:34:26;32.50;30.75;18.75
57563;PMS7003;43400;45.926;6.724;2023-01-24T05:36:57;33.25;30.25;19.50
57563;PMS7003;43400;45.926;6.724;2023-01-24T05:39:29;36.40;33.40;20.20
57563;PMS7003;43400;45.926;6.724;2023-01-24T05:42:01;37.40;34.40;22.00
57563;PMS7003;43400;45.926;6.724;2023-01-24T05:44:32;39.40;36.80;21.80
57563;PMS7003;43400;45.926;6.724;2023-01-24T05:47:04;39.60;37.40;24.60
57563;PMS7003;43400;45.926;6.724;2023-01-24T05:49:35;36.40;34.40;22.40
57563;PMS7003;43400;45.926;6.724;2023-01-24T05:52:07;43.25;41.25;26.50
57563;PMS7003;43400;45.926;6.724;2023-01-24T05:54:39;34.00;32.50;24.75
57563;PMS7003;43400;45.926;6.724;2023-01-24T05:57:10;34.20;33.40;22.00
57563;PMS7003;43400;45.926;6.724;2023-01-24T05:59:42;42.25;37.00;22.00
57563;PMS7003;43400;45.926;6.724;2023-01-24T06:02:14;46.00;42.50;25.00
57563;PMS7003;43400;45.926;6.724;2023-01-24T06:04:46;39.60;37.80;25.00
57563;PMS7003;43400;45.926;6.724;2023-01-24T06:07:17;48.75;45.00;25.75
57563;PMS7003;43400;45.926;6.724;2023-01-24T06:09:49;40.00;35.50;24.25
57563;PMS7003;43400;45.926;6.724;2023-01-24T06:12:21;45.00;37.00;25.00
57563;PMS7003;43400;45.926;6.724;2023-01-24T06:14:52;41.20;38.40;22.00
57563;PMS7003;43400;45.926;6.724;2023-01-24T06:17:24;35.00;34.00;22.00
57563;PMS7003;43400;45.926;6.724;2023-01-24T06:19:56;39.00;38.40;24.20
57563;PMS7003;43400;45.926;6.724;2023-01-24T06:22:34;37.75;34.00;23.50
57563;PMS7003;43400;45.926;6.724;2023-01-24T06:25:18;39.60;32.40;21.60
57563;PMS7003;43400;45.926;6.724;2023-01-24T06:27:52;33.60;30.60;21.00
57563;PMS7003;43400;45.926;6.724;2023-01-24T06:30:25;39.25;29.50;18.50
57563;PMS7003;43400;45.926;6.724;2023-01-24T06:38:28;47.20;44.60;25.00
57563;PMS7003;43400;45.926;6.724;2023-01-24T06:41:00;57.00;48.00;30.00
57563;PMS7003;43400;45.926;6.724;2023-01-24T06:43:33;55.50;48.00;30.00
57563;PMS7003;43400;45.926;6.724;2023-01-24T06:46:05;58.20;50.60;31.20
57563;PMS7003;43400;45.926;6.724;2023-01-24T06:48:41;59.25;51.25;32.50
57563;PMS7003;43400;45.926;6.724;2023-01-24T06:51:14;52.80;48.20;30.00
57563;PMS7003;43400;45.926;6.724;2023-01-24T06:53:45;50.75;46.50;29.50
57563;PMS7003;43400;45.926;6.724;2023-01-24T06:56:17;48.60;45.00;30.00
57563;PMS7003;43400;45.926;6.724;2023-01-24T06:58:49;63.25;49.00;27.50
57563;PMS7003;43400;45.926;6.724;2023-01-24T07:01:20;48.50;45.25;29.00
57563;PMS7003;43400;45.926;6.724;2023-01-24T07:03:52;54.00;45.40;28.40
57563;PMS7003;43400;45.926;6.724;2023-01-24T07:06:24;42.50;42.50;25.50
57563;PMS7003;43400;45.926;6.724;2023-01-24T07:08:56;45.75;40.50;26.50
57563;PMS7003;43400;45.926;6.724;2023-01-24T07:11:27;43.00;40.00;27.00
57563;PMS7003;43400;45.926;6.724;2023-01-24T07:13:59;39.25;38.00;22.50
57563;PMS7003;43400;45.926;6.724;2023-01-24T07:16:30;28.40;26.60;19.00
57563;PMS7003;43400;45.926;6.724;2023-01-24T07:19:02;39.60;35.20;24.60
57563;PMS7003;43400;45.926;6.724;2023-01-24T07:21:39;48.25;45.75;27.50
57563;PMS7003;43400;45.926;6.724;2023-01-24T07:24:12;51.00;42.40;25.80
57563;PMS7003;43400;45.926;6.724;2023-01-24T07:26:47;44.50;42.75;27.00
57563;PMS7003;43400;45.926;6.724;2023-01-24T07:29:19;38.50;35.50;24.00
57563;PMS7003;43400;45.926;6.724;2023-01-24T07:31:52;58.75;49.00;31.50
57563;PMS7003;43400;45.926;6.724;2023-01-24T07:34:24;45.25;42.00;24.00
57563;PMS7003;43400;45.926;6.724;2023-01-24T07:36:56;39.75;37.50;23.50
57563;PMS7003;43400;45.926;6.724;2023-01-24T07:39:27;43.40;41.60;25.80
57563;PMS7003;43400;45.926;6.724;2023-01-24T07:41:59;42.80;39.20;25.00
57563;PMS7003;43400;45.926;6.724;2023-01-24T07:44:31;45.40;45.00;28.00
57563;PMS7003;43400;45.926;6.724;2023-01-24T07:47:03;55.00;48.25;28.50
57563;PMS7003;43400;45.926;6.724;2023-01-24T07:49:35;42.75;40.00;27.00
57563;PMS7003;43400;45.926;6.724;2023-01-24T07:52:06;43.25;40.50;23.50
57563;PMS7003;43400;45.926;6.724;2023-01-24T07:54:38;45.00;43.80;27.60
57563;PMS7003;43400;45.926;6.724;2023-01-24T07:57:10;45.33;39.33;24.00
57563;PMS7003;43400;45.926;6.724;2023-01-24T07:59:42;47.00;41.40;27.80
57563;PMS7003;43400;45.926;6.724;2023-01-24T08:02:13;66.00;54.00;36.00
57563;PMS7003;43400;45.926;6.724;2023-01-24T08:04:45;63.00;49.00;30.00
57563;PMS7003;43400;45.926;6.724;2023-01-24T08:07:17;55.60;45.60;28.40
57563;PMS7003;43400;45.926;6.724;2023-01-24T08:09:48;43.75;42.00;27.00
57563;PMS7003;43400;45.926;6.724;2023-01-24T08:12:20;59.20;49.00;33.00
57563;PMS7003;43400;45.926;6.724;2023-01-24T08:14:52;64.60;54.00;34.00
57563;PMS7003;43400;45.926;6.724;2023-01-24T08:17:23;64.20;56.40;34.40
57563;PMS7003;43400;45.926;6.724;2023-01-24T08:19:55;61.75;54.00;33.00
57563;PMS7003;43400;45.926;6.724;2023-01-24T08:22:27;63.25;53.75;35.00
57563;PMS7003;43400;45.926;6.724;2023-01-24T08:24:58;67.00;57.00;34.00
57563;PMS7003;43400;45.926;6.724;2023-01-24T08:27:30;70.00;57.00;38.33
57563;PMS7003;43400;45.926;6.724;2023-01-24T08:30:02;76.80;61.40;37.00
57563;PMS7003;43400;45.926;6.724;2023-01-24T08:32:34;77.50;61.00;37.00
57563;PMS7003;43400;45.926;6.724;2023-01-24T08:35:05;73.50;57.25;36.00
57563;PMS7003;43400;45.926;6.724;2023-01-24T08:37:37;66.50;53.50;36.00
57563;PMS7003;43400;45.926;6.724;2023-01-24T08:40:09;68.50;54.00;34.00
57563;PMS7003;43400;45.926;6.724;2023-01-24T08:42:41;61.75;51.75;33.25
57563;PMS7003;43400;45.926;6.724;2023-01-24T08:45:12;67.50;54.75;34.00
57563;PMS7003;43400;45.926;6.724;2023-01-24T08:47:44;67.00;56.00;36.00
57563;PMS7003;43400;45.926;6.724;2023-01-24T08:50:22;64.00;52.67;33.33
57563;PMS7003;43400;45.926;6.724;2023-01-24T08:52:54;72.00;56.00;34.00
57563;PMS7003;43400;45.926;6.724;2023-01-24T08:55:27;67.50;57.25;34.50
57563;PMS7003;43400;45.926;6.724;2023-01-24T08:58:02;72.25;60.75;37.00
57563;PMS7003;43400;45.926;6.724;2023-01-24T09:00:35;61.00;53.20;33.60
57563;PMS7003;43400;45.926;6.724;2023-01-24T09:03:08;60.75;51.75;33.50
57563;PMS7003;43400;45.926;6.724;2023-01-24T09:05:42;86.50;69.50;42.00
57563;PMS7003;43400;45.926;6.724;2023-01-24T09:08:13;80.75;66.50;39.50
57563;PMS7003;43400;45.926;6.724;2023-01-24T09:10:45;82.00;66.00;41.50
57563;PMS7003;43400;45.926;6.724;2023-01-24T09:13:17;81.75;66.50;40.50
57563;PMS7003;43400;45.926;6.724;2023-01-24T09:15:49;81.00;66.25;40.50
57563;PMS7003;43400;45.926;6.724;2023-01-24T09:18:20;84.40;66.40;42.00
57563;PMS7003;43400;45.926;6.724;2023-01-24T09:20:52;74.00;62.00;39.00
57563;PMS7003;43400;45.926;6.724;2023-01-24T09:23:24;74.75;60.25;39.00
57563;PMS7003;43400;45.926;6.724;2023-01-24T09:25:56;81.75;65.00;39.50
57563;PMS7003;43400;45.926;6.724;2023-01-24T09:28:27;85.00;69.00;44.60
57563;PMS7003;43400;45.926;6.724;2023-01-24T09:30:59;74.60;62.60;40.00
57563;PMS7003;43400;45.926;6.724;2023-01-24T09:33:31;75.40;61.80;40.00
57563;PMS7003;43400;45.926;6.724;2023-01-24T09:36:03;72.25;61.00;40.00
57563;PMS7003;43400;45.926;6.724;2023-01-24T09:38:35;72.20;59.60;39.40
57563;PMS7003;43400;45.926;6.724;2023-01-24T09:44:04;69.80;58.00;37.40
57563;PMS7003;43400;45.926;6.724;2023-01-24T09:47:06;66.00;55.60;36.00
57563;PMS7003;43400;45.926;6.724;2023-01-24T09:52:27;58.20;50.20;34.00
57563;PMS7003;43400;45.926;6.724;2023-01-24T09:55:14;68.60;54.60;34.40
57563;PMS7003;43400;45.926;6.724;2023-01-24T09:58:04;56.20;48.60;33.60
57563;PMS7003;43400;45.926;6.724;2023-01-24T10:00:52;66.25;54.25;34.00
57563;PMS7003;43400;45.926;6.724;2023-01-24T10:03:23;63.25;53.00;33.00
57563;PMS7003;43400;45.926;6.724;2023-01-24T10:05:57;65.80;54.00;34.00
57563;PMS7003;43400;45.926;6.724;2023-01-24T10:17:31;59.00;49.00;33.00
57563;PMS7003;43400;45.926;6.724;2023-01-24T10:25:50;39.25;38.50;26.50
57563;PMS7003;43400;45.926;6.724;2023-01-24T10:28:33;52.00;48.00;33.00
57563;PMS7003;43400;45.926;6.724;2023-01-24T10:31:09;50.33;46.33;28.33
57563;PMS7003;43400;45.926;6.724;2023-01-24T10:33:45;39.00;36.50;25.00
57563;PMS7003;43400;45.926;6.724;2023-01-24T10:36:22;41.75;41.00;23.00
57563;PMS7003;43400;45.926;6.724;2023-01-24T10:39:15;30.50;29.75;19.00
57563;PMS7003;43400;45.926;6.724;2023-01-24T10:41:48;35.75;30.75;21.25
57563;PMS7003;43400;45.926;6.724;2023-01-24T10:44:34;45.80;42.00;26.00
57563;PMS7003;43400;45.926;6.724;2023-01-24T10:47:16;37.20;35.20;24.00
57563;PMS7003;43400;45.926;6.724;2023-01-24T10:50:15;50.00;42.00;27.00
57563;PMS7003;43400;45.926;6.724;2023-01-24T10:52:47;45.50;38.75;27.00
57563;PMS7003;43400;45.926;6.724;2023-01-24T10:55:33;28.40;26.80;19.40
57563;PMS7003;43400;45.926;6.724;2023-01-24T10:58:19;33.00;32.00;21.00
57563;PMS7003;43400;45.926;6.724;2023-01-24T11:01:07;35.50;33.00;21.00
57563;PMS7003;43400;45.926;6.724;2023-01-24T11:03:50;29.80;28.40;20.20
57563;PMS7003;43400;45.926;6.724;2023-01-24T11:09:13;34.00;31.80;20.60
57563;PMS7003;43400;45.926;6.724;2023-01-24T11:11:50;30.00;29.00;20.00
57563;PMS7003;43400;45.926;6.724;2023-01-24T11:14:27;33.60;31.20;20.20
57563;PMS7003;43400;45.926;6.724;2023-01-24T11:17:03;29.25;29.25;21.00
57563;PMS7003;43400;45.926;6.724;2023-01-24T11:19:43;31.00;29.25;20.50
57563;PMS7003;43400;45.926;6.724;2023-01-24T11:22:19;38.80;34.80;19.80
57563;PMS7003;43400;45.926;6.724;2023-01-24T11:24:56;29.80;27.20;19.00
57563;PMS7003;43400;45.926;6.724;2023-01-24T11:27:30;27.25;27.25;20.50
57563;PMS7003;43400;45.926;6.724;2023-01-24T11:30:07;34.50;31.75;21.25
57563;PMS7003;43400;45.926;6.724;2023-01-24T11:35:37;32.40;30.80;21.00
57563;PMS7003;43400;45.926;6.724;2023-01-24T11:44:14;31.25;30.00;19.50
57563;PMS7003;43400;45.926;6.724;2023-01-24T11:49:36;32.20;31.00;22.00
57563;PMS7003;43400;45.926;6.724;2023-01-24T12:00:47;33.60;31.60;22.00
57563;PMS7003;43400;45.926;6.724;2023-01-24T12:06:15;28.40;28.00;19.40
57563;PMS7003;43400;45.926;6.724;2023-01-24T12:21:10;33.00;30.00;20.00
57563;PMS7003;43400;45.926;6.724;2023-01-24T12:26:18;25.00;24.75;18.75
57563;PMS7003;43400;45.926;6.724;2023-01-24T12:29:21;38.50;33.50;23.00
57563;PMS7003;43400;45.926;6.724;2023-01-24T12:34:54;25.20;24.60;18.00
57563;PMS7003;43400;45.926;6.724;2023-01-24T12:37:35;26.00;23.80;17.20
57563;PMS7003;43400;45.926;6.724;2023-01-24T12:40:23;29.80;26.40;19.20
57563;PMS7003;43400;45.926;6.724;2023-01-24T12:49:30;35.00;33.00;23.00
57563;PMS7003;43400;45.926;6.724;2023-01-24T12:52:17;34.00;31.75;20.00
57563;PMS7003;43400;45.926;6.724;2023-01-24T12:55:17;29.00;27.75;19.75
57563;PMS7003;43400;45.926;6.724;2023-01-24T12:57:59;30.40;29.40;20.00
57563;PMS7003;43400;45.926;6.724;2023-01-24T13:03:59;33.00;30.00;20.00
57563;PMS7003;43400;45.926;6.724;2023-01-24T13:12:11;26.25;26.00;20.00
57563;PMS7003;43400;45.926;6.724;2023-01-24T13:14:55;32.75;30.25;20.25
57563;PMS7003;43400;45.926;6.724;2023-01-24T13:17:38;33.00;30.75;20.00
57563;PMS7003;43400;45.926;6.724;2023-01-24T13:35:28;35.40;33.00;21.00
57563;PMS7003;43400;45.926;6.724;2023-01-24T13:41:03;39.60;35.80;22.00
57563;PMS7003;43400;45.926;6.724;2023-01-24T13:46:18;39.75;35.75;22.50
57563;PMS7003;43400;45.926;6.724;2023-01-24T13:48:54;32.75;30.75;22.00
57563;PMS7003;43400;45.926;6.724;2023-01-24T13:54:06;32.40;30.40;22.00
57563;PMS7003;43400;45.926;6.724;2023-01-24T14:24:35;36.50;33.25;22.00
57563;PMS7003;43400;45.926;6.724;2023-01-24T14:30:02;36.40;33.80;22.20
57563;PMS7003;43400;45.926;6.724;2023-01-24T14:32:45;39.25;35.00;21.50
57563;PMS7003;43400;45.926;6.724;2023-01-24T14:35:20;37.50;34.50;22.75
57563;PMS7003;43400;45.926;6.724;2023-01-24T14:38:10;38.00;33.50;21.50
57563;PMS7003;43400;45.926;6.724;2023-01-24T14:40:46;37.60;34.00;24.00
57563;PMS7003;43400;45.926;6.724;2023-01-24T14:43:23;36.75;34.50;24.00
57563;PMS7003;43400;45.926;6.724;2023-01-24T14:46:12;38.75;35.00;23.50
57563;PMS7003;43400;45.926;6.724;2023-01-24T14:48:52;39.40;34.60;23.80
57563;PMS7003;43400;45.926;6.724;2023-01-24T14:51:23;34.50;33.25;23.25
57563;PMS7003;43400;45.926;6.724;2023-01-24T14:53:55;46.00;40.00;26.00
57563;PMS7003;43400;45.926;6.724;2023-01-24T14:56:27;48.50;39.75;26.00
57563;PMS7003;43400;45.926;6.724;2023-01-24T14:59:10;44.00;38.20;25.00
57563;PMS7003;43400;45.926;6.724;2023-01-24T15:01:43;44.75;37.00;25.00
57563;PMS7003;43400;45.926;6.724;2023-01-24T15:04:26;43.75;38.75;26.00
57563;PMS7003;43400;45.926;6.724;2023-01-24T15:07:13;38.00;35.00;25.00
57563;PMS7003;43400;45.926;6.724;2023-01-24T15:09:46;46.00;38.33;25.00
57563;PMS7003;43400;45.926;6.724;2023-01-24T15:12:27;44.25;39.00;26.00
57563;PMS7003;43400;45.926;6.724;2023-01-24T15:15:04;42.00;36.60;23.40
57563;PMS7003;43400;45.926;6.724;2023-01-24T15:17:36;43.75;38.25;23.00
57563;PMS7003;43400;45.926;6.724;2023-01-24T15:20:09;46.80;40.80;27.20
57563;PMS7003;43400;45.926;6.724;2023-01-24T15:22:49;41.25;39.00;26.75
57563;PMS7003;43400;45.926;6.724;2023-01-24T15:25:31;42.60;38.00;25.20
57563;PMS7003;43400;45.926;6.724;2023-01-24T15:28:18;42.20;38.20;26.00
57563;PMS7003;43400;45.926;6.724;2023-01-24T15:31:00;44.25;39.00;26.00
57563;PMS7003;43400;45.926;6.724;2023-01-24T15:33:39;41.75;39.25;23.75
57563;PMS7003;43400;45.926;6.724;2023-01-24T15:36:25;46.50;38.75;24.25
57563;PMS7003;43400;45.926;6.724;2023-01-24T15:39:02;40.75;37.00;24.75
57563;PMS7003;43400;45.926;6.724;2023-01-24T15:41:37;39.50;36.00;22.00
57563;PMS7003;43400;45.926;6.724;2023-01-24T15:44:09;36.40;34.00;24.00
57563;PMS7003;43400;45.926;6.724;2023-01-24T15:46:41;36.25;33.75;22.25
57563;PMS7003;43400;45.926;6.724;2023-01-24T15:49:16;40.50;37.00;25.00
57563;PMS7003;43400;45.926;6.724;2023-01-24T15:54:38;45.75;38.75;25.00
57563;PMS7003;43400;45.926;6.724;2023-01-24T15:59:58;49.25;44.25;27.00
57563;PMS7003;43400;45.926;6.724;2023-01-24T16:02:33;38.50;36.25;22.50
57563;PMS7003;43400;45.926;6.724;2023-01-24T16:05:15;37.20;34.40;23.80
57563;PMS7003;43400;45.926;6.724;2023-01-24T16:07:49;42.60;38.60;24.20
57563;PMS7003;43400;45.926;6.724;2023-01-24T16:10:20;38.50;37.50;24.00
57563;PMS7003;43400;45.926;6.724;2023-01-24T16:12:52;43.20;39.40;24.60
57563;PMS7003;43400;45.926;6.724;2023-01-24T16:15:24;44.25;40.25;24.75
57563;PMS7003;43400;45.926;6.724;2023-01-24T16:17:56;35.25;33.00;23.25
57563;PMS7003;43400;45.926;6.724;2023-01-24T16:20:28;42.25;38.50;24.00
57563;PMS7003;43400;45.926;6.724;2023-01-24T16:23:00;39.50;34.25;20.00
57563;PMS7003;43400;45.926;6.724;2023-01-24T16:25:31;38.25;37.50;21.75
57563;PMS7003;43400;45.926;6.724;2023-01-24T16:28:08;38.40;36.60;23.40
57563;PMS7003;43400;45.926;6.724;2023-01-24T16:30:48;36.80;35.60;24.20
57563;PMS7003;43400;45.926;6.724;2023-01-24T16:33:20;38.00;35.80;23.60
57563;PMS7003;43400;45.926;6.724;2023-01-24T16:35:53;42.40;37.60;25.80
57563;PMS7003;43400;45.926;6.724;2023-01-24T16:38:25;43.00;39.00;23.00
57563;PMS7003;43400;45.926;6.724;2023-01-24T16:40:57;41.20;38.40;25.00
57563;PMS7003;43400;45.926;6.724;2023-01-24T16:43:29;35.00;33.50;23.00
57563;PMS7003;43400;45.926;6.724;2023-01-24T16:46:00;44.50;42.00;24.75
57563;PMS7003;43400;45.926;6.724;2023-01-24T16:48:32;42.40;38.40;26.80
57563;PMS7003;43400;45.926;6.724;2023-01-24T16:51:08;44.00;42.50;26.00
57563;PMS7003;43400;45.926;6.724;2023-01-24T16:53:40;46.80;42.00;25.00
57563;PMS7003;43400;45.926;6.724;2023-01-24T16:56:13;43.75;37.75;27.00
57563;PMS7003;43400;45.926;6.724;2023-01-24T16:58:44;53.50;47.00;28.00
57563;PMS7003;43400;45.926;6.724;2023-01-24T17:01:16;73.00;59.25;38.00
57563;PMS7003;43400;45.926;6.724;2023-01-24T17:03:51;61.00;51.75;34.00
57563;PMS7003;43400;45.926;6.724;2023-01-24T17:06:23;56.33;47.00;28.67